createdAt,value
2018-01-20T00:32:40.120Z,4.87
2018-01-20T01:32:38.326Z,4.61
2018-01-20T02:47:38.446Z,4.36
2018-01-20T03:02:38.058Z,4.35
2018-01-20T03:17:39.443Z,4.48
2018-01-20T03:32:36.373Z,4.50
2018-01-20T03:47:40.278Z,4.67
2018-01-20T04:02:38.324Z,4.59
2018-01-20T04:17:35.572Z,4.23
2018-01-20T04:32:38.131Z,4.08
2018-01-20T04:47:40.327Z,4.24
2018-01-20T05:02:36.423Z,4.58
2018-01-20T05:17:36.860Z,4.69
2018-01-20T05:32:37.196Z,4.62
2018-01-20T05:47:36.704Z,4.70
2018-01-20T06:02:44.511Z,4.95
2018-01-20T07:32:36.782Z,6.10
2018-01-20T09:02:34.085Z,8.00
2018-01-20T09:17:35.043Z,9.13
2018-01-20T09:32:34.701Z,9.70
2018-01-20T09:47:36.443Z,10.25
2018-01-20T10:02:36.447Z,10.35
2018-01-20T10:17:34.806Z,15.14
2018-01-20T10:32:36.527Z,12.46
2018-01-20T10:47:35.478Z,10.67
2018-01-20T11:02:38.362Z,9.50
2018-01-20T11:17:35.020Z,8.50
2018-01-20T11:32:35.016Z,8.06
2018-01-20T11:47:40.009Z,7.87
2018-01-20T12:02:34.805Z,7.41
2018-01-20T13:32:34.352Z,5.90
2018-01-20T14:02:34.233Z,5.49
2018-01-20T14:17:41.328Z,5.31
2018-01-20T14:32:34.671Z,4.97
2018-01-20T14:47:37.130Z,4.45
2018-01-20T15:02:34.718Z,4.07
2018-01-20T15:17:45.304Z,3.80
2018-01-20T15:32:36.853Z,3.64
2018-01-20T15:47:36.962Z,3.58
2018-01-20T16:02:37.458Z,3.53
2018-01-20T16:17:34.222Z,3.58
2018-01-20T16:32:53.729Z,3.64
2018-01-20T16:47:35.085Z,3.65
2018-01-20T17:02:38.118Z,3.66
2018-01-20T17:17:41.744Z,3.72
2018-01-20T17:32:43.190Z,3.82
2018-01-20T18:47:38.151Z,4.13
2018-01-20T19:02:38.958Z,4.05
2018-01-20T19:17:38.272Z,4.06
2018-01-20T19:32:36.552Z,4.08
2018-01-20T19:47:43.038Z,4.14
2018-01-20T20:02:35.176Z,4.13
2018-01-20T20:17:36.231Z,4.21
2018-01-20T20:32:41.651Z,4.02
2018-01-20T20:47:41.862Z,3.49
2018-01-20T21:02:44.574Z,3.04
2018-01-20T21:17:38.506Z,2.76
2018-01-20T21:32:37.559Z,2.52
2018-01-20T21:47:36.549Z,2.51
2018-01-20T22:02:37.061Z,2.49
2018-01-20T22:17:35.606Z,2.56
2018-01-20T22:32:35.282Z,2.69
2018-01-20T22:47:36.406Z,2.73
2018-01-20T23:02:35.927Z,2.74
2018-01-20T23:17:34.957Z,2.70
2018-01-20T23:32:36.700Z,2.67
2018-01-20T23:47:34.782Z,2.61
